Overview Statistics Trail Chart Weather Telemetry Raw packets
 

This is the latest recevied telemetry packets stored in our database for station/object OE1KFR-7. If no packets are shown the sender has not sent any telemetry packets the latest 10 day(s).

Telemetry packets is used to share measurements like repeteater parameters, battery voltage, radiation readings (or any other measurements).

<< 1 2 3 4 >>
Time Press* Temp.in* Hum* eGAS* Temp.out*
1788567172 984.2 hPa 25.9 C deg 52.9 % 272 - 0 C deg
1788565342 984.2 hPa 25.9 C deg 52.8 % 278 - 0 C deg
1788563510 984 hPa 25.9 C deg 52.8 % 290 - 0 C deg
1788561682 983.7 hPa 25.9 C deg 52.7 % 304 - 0 C deg
1788559851 983.6 hPa 25.9 C deg 52.7 % 316 - 0 C deg
1788558024 983.8 hPa 25.9 C deg 52.2 % 345 - 0 C deg
1788556189 983.7 hPa 25.9 C deg 51.5 % 366 - 0 C deg
1788554359 983.6 hPa 25.9 C deg 52.8 % 362 - 0 C deg
1788552528 983.6 hPa 25.9 C deg 51.6 % 384 - 0 C deg
1788550709 983.7 hPa 25.9 C deg 51.2 % 384 - 0 C deg
1788548869 983.7 hPa 25.9 C deg 51 % 385 - 0 C deg
1788547041 983.6 hPa 26 C deg 50.7 % 389 - 0 C deg
1788545208 983.5 hPa 26 C deg 50.3 % 392 - 0 C deg
1788543381 983.4 hPa 26.1 C deg 49.8 % 410 - 0 C deg
1788541550 983.7 hPa 26.1 C deg 47.9 % 425 - 0 C deg
1788539729 984 hPa 26.1 C deg 47.6 % 410 - 0 C deg
1788537888 984.3 hPa 26 C deg 49.3 % 389 - 0 C deg
1788536060 984.7 hPa 25.8 C deg 53.9 % 373 - 0 C deg
1788534248 985 hPa 25.8 C deg 53.7 % 375 - 0 C deg
1788532419 985.3 hPa 25.8 C deg 53.8 % 374 - 0 C deg
1788530568 985.9 hPa 25.8 C deg 53.8 % 369 - 0 C deg
1788528738 986.3 hPa 25.8 C deg 53.8 % 377 - 0 C deg
1788526906 986.7 hPa 25.7 C deg 53.8 % 380 - 0 C deg
1788525080 987.3 hPa 25.7 C deg 53.8 % 382 - 0 C deg
1788523246 987.5 hPa 25.7 C deg 53.8 % 374 - 0 C deg
*Used Equation Coefficients:
Press: 0, 1, 0
Temp.in: 0, 1, 0
Hum: 0, 1, 0
eGAS: 0, 1, 0
Temp.out: 0, 1, 0

  • The parameter names for the analog channels will be Value1, Value2, Value3 (up to Value5) if station has not sent a PARAM-packet that specifies the parameter names for each analog channel.
  • Each analog value is a decimal number between 000 and 255 (according to APRS specifications). The receiver use the telemetry equation coefficientsto to restore the original sensor values. If no EQNS-packet with equation coefficients is sent we will show the values as is (this corresponds to the equation coefficients a=0, b=1 and c=0).
    The sent equation coefficients is used in the equation: a * value2 + b * value + c.
  • The units for the analog values will not be shown if station has not sent a UNIT-packet specifying what unit's to use.
  • The parameter names for the digital bits will be Bit1, Bit2, Bit3 (up to Bit8) if station has not sent a PARAM-packet that specifies the parameter names for each digital bit.
  • All bit labels will be named "On" if station has not sent a UNIT-packet that specifies the label of each bit.
  • A bit is considered to be On when the bit is 1 if station has not sent a BITS-packet that specifies another "Bit sense" (a BITS-packet specify the state of the bits that match the BIT labels)